Time;durP1;ratioP1;P1;durP2;ratioP2;P2;SDS_P1;SDS_P2;PMS_P1;PMS_P2;Temp;Humidity;BMP_temperature;BMP_pressure;BME280_temperature;BME280_humidity;BME280_pressure;Samples;Min_cycle;Max_cycle;Signal;HPM_P1;HPM_P2
2021/06/03 00:02:07;;;;;;;;;;;27.90;92.40;;;;;;5148673;27;19908;-43
2021/06/03 00:04:33;;;;;;;;;;;27.90;92.20;;;;;;5148902;27;19940;-45
2021/06/03 00:06:59;;;;;;;;;;;27.90;92.20;;;;;;5148430;27;19907;-45
2021/06/03 00:09:26;;;;;;;;;;;27.90;92.10;;;;;;5148734;27;19939;-45
2021/06/03 00:11:52;;;;;;;;;;;27.80;92.10;;;;;;5148371;27;19904;-50
2021/06/03 00:14:18;;;;;;;;;;;27.80;92.00;;;;;;5149038;27;19911;-45
2021/06/03 00:16:45;;;;;;;;;;;27.80;91.90;;;;;;5148517;27;20073;-46
2021/06/03 00:19:11;;;;;;;;;;;27.80;91.80;;;;;;5148947;27;19911;-42
2021/06/03 00:21:39;;;;;;;;;;;27.80;91.90;;;;;;5148254;27;19978;-44
2021/06/03 00:24:06;;;;;;;;;;;27.80;91.90;;;;;;5149509;27;19943;-42
2021/06/03 00:26:33;;;;;;;;;;;27.80;91.90;;;;;;5148166;27;19910;-42
2021/06/03 00:28:59;;;;;;;;;;;27.80;91.90;;;;;;5148966;27;19943;-44
2021/06/03 00:31:26;;;;;;;;;;;27.80;91.90;;;;;;5148791;27;19908;-48
2021/06/03 00:33:52;;;;;;;;;;;27.80;91.90;;;;;;5148855;27;19911;-49
2021/06/03 00:36:19;;;;;;;;;;;27.80;92.00;;;;;;5148335;27;19938;-47
2021/06/03 00:38:45;;;;;;;;;;;27.80;92.00;;;;;;5149309;27;19912;-48
2021/06/03 00:41:14;;;;;;;;;;;27.80;92.00;;;;;;5147754;27;19907;-46
2021/06/03 00:43:40;;;;;;;;;;;27.80;92.10;;;;;;5148283;27;19923;-50
2021/06/03 00:46:07;;;;;;;;;;;27.70;92.10;;;;;;5148226;27;19964;-45
2021/06/03 00:48:33;;;;;;;;;;;27.70;92.10;;;;;;5147453;27;19918;-42
2021/06/03 00:51:01;;;;;;;;;;;27.70;92.20;;;;;;5147959;27;19908;-45
2021/06/03 00:53:27;;;;;;;;;;;27.70;92.20;;;;;;5148092;27;19982;-45
2021/06/03 00:55:56;;;;;;;;;;;27.70;92.40;;;;;;5147807;27;19918;-44
2021/06/03 00:58:24;;;;;;;;;;;27.70;92.20;;;;;;5148375;27;19923;-42
2021/06/03 01:00:51;;;;;;;;;;;27.70;92.50;;;;;;5147780;27;19978;-48
2021/06/03 01:03:18;;;;;;;;;;;27.70;92.30;;;;;;5148063;27;19915;-42
2021/06/03 01:05:48;;;;;;;;;;;27.70;92.30;;;;;;5147662;27;20246;-44
2021/06/03 01:08:17;;;;;;;;;;;27.70;92.40;;;;;;5147915;27;19911;-42
2021/06/03 01:10:58;;;;;;;;;;;27.70;92.40;;;;;;5147407;27;20073;-44
2021/06/03 01:13:27;;;;;;;;;;;27.70;92.50;;;;;;5148116;27;19913;-45
2021/06/03 01:15:54;;;;;;;;;;;27.70;92.40;;;;;;5147399;27;19938;-42
2021/06/03 01:18:20;;;;;;;;;;;27.70;92.50;;;;;;5148163;27;19912;-45
2021/06/03 01:20:47;;;;;;;;;;;27.60;92.50;;;;;;5147337;27;19944;-44
2021/06/03 01:23:25;;;;;;;;;;;27.70;92.50;;;;;;5147379;27;20012;-42
2021/06/03 01:25:53;;;;;;;;;;;27.70;92.50;;;;;;5147434;27;19903;-42
2021/06/03 01:28:19;;;;;;;;;;;27.60;92.50;;;;;;5147216;27;20149;-45
2021/06/03 01:30:49;;;;;;;;;;;27.60;92.50;;;;;;5128921;27;20192;-42
2021/06/03 01:33:17;;;;;;;;;;;27.60;92.50;;;;;;5129185;27;19919;-47
2021/06/03 01:35:45;;;;;;;;;;;27.60;92.70;;;;;;5147170;27;19903;-45
2021/06/03 01:38:13;;;;;;;;;;;27.60;92.50;;;;;;5147555;27;19911;-44
2021/06/03 01:40:40;;;;;;;;;;;27.60;92.60;;;;;;5147257;27;19970;-44
2021/06/03 01:43:07;;;;;;;;;;;27.60;92.60;;;;;;5147010;27;20196;-45
2021/06/03 01:45:33;;;;;;;;;;;27.60;92.50;;;;;;5147107;27;19931;-41
2021/06/03 01:48:00;;;;;;;;;;;27.60;92.50;;;;;;5147198;27;19911;-42
2021/06/03 01:50:26;;;;;;;;;;;27.50;92.40;;;;;;5146739;27;19907;-42
2021/06/03 01:52:53;;;;;;;;;;;27.50;92.60;;;;;;5146707;27;19965;-43
2021/06/03 01:55:19;;;;;;;;;;;27.50;92.70;;;;;;5128295;27;19974;-43
2021/06/03 01:57:46;;;;;;;;;;;27.50;92.70;;;;;;5146984;27;19982;-43
2021/06/03 02:00:14;;;;;;;;;;;27.50;92.70;;;;;;5145454;27;20218;-42
2021/06/03 02:02:40;;;;;;;;;;;27.50;92.70;;;;;;5146179;27;20137;-42
2021/06/03 02:05:07;;;;;;;;;;;27.50;92.80;;;;;;5146225;27;19974;-43
2021/06/03 02:07:34;;;;;;;;;;;27.40;92.70;;;;;;5112396;28;19912;-47
2021/06/03 02:10:00;;;;;;;;;;;27.40;92.80;;;;;;5107463;28;20107;-46
2021/06/03 02:12:29;;;;;;;;;;;27.40;92.90;;;;;;5124680;28;19916;-41
2021/06/03 02:14:57;;;;;;;;;;;27.30;92.80;;;;;;5124798;28;20257;-45
2021/06/03 02:17:26;;;;;;;;;;;27.30;93.10;;;;;;5145281;27;20104;-46
2021/06/03 02:19:55;;;;;;;;;;;27.30;92.90;;;;;;5136268;27;19908;-49
2021/06/03 02:22:22;;;;;;;;;;;27.30;93.00;;;;;;5132747;27;19922;-48
2021/06/03 02:24:50;;;;;;;;;;;27.30;93.00;;;;;;5125041;28;19908;-42
2021/06/03 02:27:17;;;;;;;;;;;27.30;93.10;;;;;;5125284;27;19904;-45
2021/06/03 02:29:44;;;;;;;;;;;27.30;93.20;;;;;;5124855;28;19923;-42
2021/06/03 02:32:11;;;;;;;;;;;27.30;93.30;;;;;;5125254;28;19903;-45
2021/06/03 02:34:38;;;;;;;;;;;27.30;93.40;;;;;;5124890;28;19907;-44
2021/06/03 02:37:11;;;;;;;;;;;27.20;93.40;;;;;;5126189;27;19903;-48
2021/06/03 02:39:37;;;;;;;;;;;27.20;93.40;;;;;;5124745;28;19908;-50
2021/06/03 02:42:07;;;;;;;;;;;27.20;93.30;;;;;;5126193;28;19907;-44
2021/06/03 02:44:35;;;;;;;;;;;27.20;93.30;;;;;;5124712;28;19919;-42
2021/06/03 02:47:01;;;;;;;;;;;27.20;93.30;;;;;;5126357;27;19903;-44
2021/06/03 02:49:27;;;;;;;;;;;27.20;93.20;;;;;;5124043;28;19924;-46
2021/06/03 02:51:53;;;;;;;;;;;27.20;93.20;;;;;;5125241;27;19966;-45
2021/06/03 02:54:20;;;;;;;;;;;27.20;93.30;;;;;;5114408;28;19915;-45
2021/06/03 02:56:46;;;;;;;;;;;27.20;93.40;;;;;;5114153;28;19908;-42
2021/06/03 02:59:12;;;;;;;;;;;27.10;93.30;;;;;;5109355;28;19912;-41
2021/06/03 03:01:38;;;;;;;;;;;27.10;93.30;;;;;;5113032;28;19915;-45
2021/06/03 03:04:05;;;;;;;;;;;27.10;93.20;;;;;;5097329;28;19935;-46
2021/06/03 03:06:31;;;;;;;;;;;27.10;93.20;;;;;;5112832;28;19908;-41
2021/06/03 03:08:57;;;;;;;;;;;27.00;93.20;;;;;;5106984;28;19979;-44
2021/06/03 03:11:23;;;;;;;;;;;27.00;93.20;;;;;;5106637;28;20168;-47
2021/06/03 03:13:49;;;;;;;;;;;27.00;93.20;;;;;;5108922;28;19919;-45
2021/06/03 03:16:15;;;;;;;;;;;27.00;93.40;;;;;;5107930;28;19998;-44
2021/06/03 03:18:42;;;;;;;;;;;27.00;93.70;;;;;;5108724;28;20122;-49
2021/06/03 03:21:08;;;;;;;;;;;27.10;94.10;;;;;;5090234;28;19910;-43
2021/06/03 03:23:34;;;;;;;;;;;27.10;94.10;;;;;;5114047;28;19922;-47
2021/06/03 03:26:00;;;;;;;;;;;27.10;94.40;;;;;;5108159;28;19957;-44
2021/06/03 03:28:26;;;;;;;;;;;27.10;94.30;;;;;;5108236;28;20126;-47
2021/06/03 03:30:54;;;;;;;;;;;27.10;94.30;;;;;;5108070;28;19930;-41
2021/06/03 03:33:20;;;;;;;;;;;27.10;94.30;;;;;;5108731;28;19920;-48
2021/06/03 03:35:46;;;;;;;;;;;27.10;94.50;;;;;;5108134;28;20018;-41
2021/06/03 03:38:14;;;;;;;;;;;27.10;94.20;;;;;;5108360;28;19912;-44
2021/06/03 03:40:40;;;;;;;;;;;27.10;94.20;;;;;;5108232;28;19904;-44
2021/06/03 03:43:07;;;;;;;;;;;27.10;94.30;;;;;;5107169;28;20215;-44
2021/06/03 03:45:34;;;;;;;;;;;27.00;94.20;;;;;;5107813;28;19911;-47
2021/06/03 03:48:02;;;;;;;;;;;27.10;94.30;;;;;;5107760;28;19940;-47
2021/06/03 03:50:31;;;;;;;;;;;27.00;94.10;;;;;;5107806;28;19957;-45
2021/06/03 03:52:58;;;;;;;;;;;27.00;94.20;;;;;;5114788;28;20391;-42
2021/06/03 03:55:25;;;;;;;;;;;27.00;94.00;;;;;;5128055;28;20152;-48
2021/06/03 03:57:51;;;;;;;;;;;27.00;93.90;;;;;;5127212;28;20134;-52
2021/06/03 04:00:19;;;;;;;;;;;27.00;93.70;;;;;;5127823;28;19915;-44
2021/06/03 04:02:46;;;;;;;;;;;27.00;93.60;;;;;;5127730;28;19916;-42
2021/06/03 04:05:14;;;;;;;;;;;26.90;93.40;;;;;;5127607;28;19910;-43
2021/06/03 04:07:41;;;;;;;;;;;26.90;93.60;;;;;;5128159;28;19986;-45
2021/06/03 04:10:12;;;;;;;;;;;26.90;93.60;;;;;;5128117;28;19903;-55
2021/06/03 04:24:51;;;;;;;;;;;26.80;93.60;;;;;;5107768;28;19919;-44
2021/06/03 04:27:17;;;;;;;;;;;26.70;93.70;;;;;;5126785;28;20163;-44
2021/06/03 04:29:43;;;;;;;;;;;26.80;93.80;;;;;;5127125;28;19908;-49
2021/06/03 04:32:10;;;;;;;;;;;26.70;93.60;;;;;;5127103;28;19904;-45
2021/06/03 04:34:36;;;;;;;;;;;26.70;93.70;;;;;;5127183;28;19915;-48
2021/06/03 04:37:03;;;;;;;;;;;26.70;93.90;;;;;;5127264;28;19904;-43
2021/06/03 04:39:29;;;;;;;;;;;26.70;93.80;;;;;;5127329;28;19948;-42
2021/06/03 04:41:55;;;;;;;;;;;26.70;94.00;;;;;;5126995;28;20207;-43
2021/06/03 04:44:22;;;;;;;;;;;26.70;94.10;;;;;;5127673;28;19982;-42
2021/06/03 04:46:49;;;;;;;;;;;26.70;94.10;;;;;;5127370;28;19908;-42
2021/06/03 04:49:16;;;;;;;;;;;26.70;94.00;;;;;;5127876;28;20180;-44
2021/06/03 04:51:43;;;;;;;;;;;26.60;94.10;;;;;;5127115;28;19904;-43
2021/06/03 04:54:09;;;;;;;;;;;26.60;94.20;;;;;;5127008;28;20107;-48
2021/06/03 04:56:35;;;;;;;;;;;26.60;94.30;;;;;;5126845;28;20081;-43
2021/06/03 04:59:02;;;;;;;;;;;26.60;94.30;;;;;;5127334;28;19911;-44
2021/06/03 05:01:28;;;;;;;;;;;26.60;94.20;;;;;;5126952;28;19903;-42
2021/06/03 05:03:54;;;;;;;;;;;26.60;94.20;;;;;;5127321;28;20241;-42
2021/06/03 05:06:20;;;;;;;;;;;26.60;94.30;;;;;;5126823;28;19940;-44
2021/06/03 05:08:48;;;;;;;;;;;26.60;94.50;;;;;;5127197;28;19911;-44
2021/06/03 05:11:14;;;;;;;;;;;26.60;94.40;;;;;;5126534;28;19939;-43
2021/06/03 05:13:40;;;;;;;;;;;26.60;94.40;;;;;;5127079;28;19948;-42
2021/06/03 05:16:07;;;;;;;;;;;26.60;94.40;;;;;;5126389;28;19967;-42
2021/06/03 05:18:33;;;;;;;;;;;26.60;94.40;;;;;;5127003;28;19935;-46
2021/06/03 05:21:00;;;;;;;;;;;26.60;94.50;;;;;;5126912;28;19904;-41
2021/06/03 05:23:26;;;;;;;;;;;26.60;94.50;;;;;;5126594;28;19923;-42
2021/06/03 05:25:53;;;;;;;;;;;26.60;94.50;;;;;;5126133;28;19904;-42
2021/06/03 05:28:19;;;;;;;;;;;26.60;94.50;;;;;;5126716;28;19919;-42
2021/06/03 05:30:45;;;;;;;;;;;26.60;94.50;;;;;;5126244;28;19936;-43
2021/06/03 05:33:12;;;;;;;;;;;26.60;94.50;;;;;;5126391;28;20241;-47
2021/06/03 05:35:38;;;;;;;;;;;26.60;94.60;;;;;;5126221;28;19904;-45
2021/06/03 05:38:04;;;;;;;;;;;26.60;94.60;;;;;;5126330;28;19912;-44
2021/06/03 05:40:32;;;;;;;;;;;26.60;94.60;;;;;;5107914;28;20096;-56
2021/06/03 05:42:59;;;;;;;;;;;26.60;94.60;;;;;;5125428;28;19923;-45
2021/06/03 05:45:25;;;;;;;;;;;26.60;94.60;;;;;;5125446;28;19904;-43
2021/06/03 05:47:52;;;;;;;;;;;26.60;94.70;;;;;;5126107;28;19911;-43
2021/06/03 05:50:19;;;;;;;;;;;26.60;94.80;;;;;;5126057;28;20099;-45
2021/06/03 05:52:46;;;;;;;;;;;26.60;94.80;;;;;;5125833;28;20237;-46
2021/06/03 05:55:13;;;;;;;;;;;26.60;94.70;;;;;;5125966;28;20104;-42
2021/06/03 05:57:42;;;;;;;;;;;26.60;94.90;;;;;;5125056;28;19940;-42
2021/06/03 06:00:12;;;;;;;;;;;26.60;94.90;;;;;;5107639;28;19912;-49
2021/06/03 06:03:15;;;;;;;;;;;26.50;95.00;;;;;;5125704;28;19938;-45
2021/06/03 06:08:17;;;;;;;;;;;26.50;95.00;;;;;;5125335;28;19977;-44
2021/06/03 06:10:43;;;;;;;;;;;26.50;95.00;;;;;;5124512;28;19904;-45
2021/06/03 06:13:10;;;;;;;;;;;26.50;95.00;;;;;;5125010;28;20137;-54
2021/06/03 06:15:36;;;;;;;;;;;26.50;95.10;;;;;;5124803;28;19904;-47
2021/06/03 06:18:03;;;;;;;;;;;26.50;95.10;;;;;;5124646;28;19953;-44
2021/06/03 06:20:30;;;;;;;;;;;26.50;95.20;;;;;;5124986;28;19926;-44
2021/06/03 06:22:56;;;;;;;;;;;26.50;95.10;;;;;;5125636;28;19991;-45
2021/06/03 06:25:22;;;;;;;;;;;26.50;95.10;;;;;;5125192;28;19904;-51
2021/06/03 06:27:49;;;;;;;;;;;26.50;95.10;;;;;;5125646;28;19919;-52
2021/06/03 06:30:15;;;;;;;;;;;26.50;95.20;;;;;;5125620;28;19904;-49
2021/06/03 06:32:41;;;;;;;;;;;26.50;95.20;;;;;;5125258;28;19919;-50
2021/06/03 06:35:08;;;;;;;;;;;26.50;95.10;;;;;;5125704;28;19904;-53
2021/06/03 06:37:35;;;;;;;;;;;26.50;95.10;;;;;;5125583;28;19935;-50
2021/06/03 06:40:03;;;;;;;;;;;26.50;95.20;;;;;;5125305;28;19910;-43
2021/06/03 06:42:31;;;;;;;;;;;26.50;95.20;;;;;;5106842;28;19951;-50
2021/06/03 06:44:57;;;;;;;;;;;26.50;95.20;;;;;;5124655;28;19903;-50
2021/06/03 06:47:23;;;;;;;;;;;26.50;95.20;;;;;;5125505;28;20087;-52
2021/06/03 06:49:49;;;;;;;;;;;26.50;95.20;;;;;;5125430;28;19951;-45
2021/06/03 06:52:15;;;;;;;;;;;26.40;95.20;;;;;;5125285;28;19994;-51
2021/06/03 06:54:42;;;;;;;;;;;26.50;95.20;;;;;;5125428;28;19949;-47
2021/06/03 06:57:08;;;;;;;;;;;26.50;95.20;;;;;;5124974;28;19979;-53
2021/06/03 06:59:34;;;;;;;;;;;26.50;95.10;;;;;;5125287;28;19903;-50
2021/06/03 07:02:01;;;;;;;;;;;26.50;95.10;;;;;;5124613;28;19904;-52
2021/06/03 07:04:27;;;;;;;;;;;26.40;95.10;;;;;;5125514;28;19975;-44
2021/06/03 07:06:53;;;;;;;;;;;26.50;95.10;;;;;;5125506;28;19911;-46
2021/06/03 07:09:20;;;;;;;;;;;26.40;95.10;;;;;;5125116;28;19924;-52
2021/06/03 07:11:46;;;;;;;;;;;26.40;95.20;;;;;;5124816;28;20100;-48
2021/06/03 07:14:12;;;;;;;;;;;26.40;95.20;;;;;;5125657;28;19912;-43
2021/06/03 07:16:38;;;;;;;;;;;26.40;95.10;;;;;;5125129;28;19903;-46
2021/06/03 07:19:04;;;;;;;;;;;26.40;95.10;;;;;;5125161;28;19916;-52
2021/06/03 07:21:31;;;;;;;;;;;26.40;95.10;;;;;;5124601;28;19907;-57
2021/06/03 07:23:57;;;;;;;;;;;26.40;95.30;;;;;;5125867;28;19983;-46
2021/06/03 07:26:24;;;;;;;;;;;26.40;95.10;;;;;;5124936;28;20096;-48
2021/06/03 07:28:51;;;;;;;;;;;26.40;95.10;;;;;;5125063;28;19975;-48
2021/06/03 07:31:18;;;;;;;;;;;26.40;95.10;;;;;;5125111;28;19904;-50
2021/06/03 07:33:44;;;;;;;;;;;26.40;95.10;;;;;;5125035;28;20065;-48
2021/06/03 07:36:10;;;;;;;;;;;26.40;95.20;;;;;;5124985;28;19910;-45
2021/06/03 07:38:36;;;;;;;;;;;26.40;95.20;;;;;;5125176;28;19947;-44
2021/06/03 07:41:03;;;;;;;;;;;26.40;95.20;;;;;;5124750;28;19911;-52
2021/06/03 07:43:30;;;;;;;;;;;26.40;95.20;;;;;;5125235;28;20173;-53
2021/06/03 07:45:56;;;;;;;;;;;26.40;95.20;;;;;;5125051;28;19903;-44
2021/06/03 07:48:22;;;;;;;;;;;26.40;95.10;;;;;;5124859;28;19912;-44
2021/06/03 07:50:49;;;;;;;;;;;26.40;95.10;;;;;;5124642;28;19910;-44
2021/06/03 07:53:15;;;;;;;;;;;26.40;95.10;;;;;;5124617;28;20085;-45
2021/06/03 07:55:41;;;;;;;;;;;26.40;95.20;;;;;;5124645;28;19904;-44
2021/06/03 07:58:09;;;;;;;;;;;26.40;95.20;;;;;;5128078;28;20069;-47
2021/06/03 08:00:36;;;;;;;;;;;26.40;95.20;;;;;;5129021;28;20196;-51
2021/06/03 08:03:03;;;;;;;;;;;26.40;95.20;;;;;;5128178;28;19923;-48
2021/06/03 08:05:30;;;;;;;;;;;26.30;95.30;;;;;;5128370;28;19904;-48
2021/06/03 08:07:56;;;;;;;;;;;26.30;95.30;;;;;;5128448;28;19911;-46
2021/06/03 08:10:28;;;;;;;;;;;26.30;95.30;;;;;;5128679;28;19911;-45
2021/06/03 08:12:54;;;;;;;;;;;26.30;95.30;;;;;;5110052;28;19912;-52
2021/06/03 08:15:21;;;;;;;;;;;26.30;95.30;;;;;;5128329;28;19904;-48
2021/06/03 08:17:48;;;;;;;;;;;26.30;95.20;;;;;;5128109;28;19912;-47
2021/06/03 08:20:16;;;;;;;;;;;26.30;95.10;;;;;;5127861;28;19903;-45
2021/06/03 08:22:42;;;;;;;;;;;26.30;95.10;;;;;;5128248;28;19947;-47
2021/06/03 08:25:09;;;;;;;;;;;26.30;95.00;;;;;;5128053;28;19944;-45
2021/06/03 08:27:35;;;;;;;;;;;26.30;95.00;;;;;;5128111;28;20237;-48
2021/06/03 08:30:03;;;;;;;;;;;26.30;95.00;;;;;;5109976;28;20077;-50
2021/06/03 08:32:30;;;;;;;;;;;26.30;95.00;;;;;;5128117;28;19922;-50
2021/06/03 08:34:56;;;;;;;;;;;26.30;95.00;;;;;;5127681;28;19908;-46
2021/06/03 08:37:22;;;;;;;;;;;26.30;95.10;;;;;;5127861;28;19908;-47
2021/06/03 08:39:49;;;;;;;;;;;26.30;95.00;;;;;;5127724;28;20256;-43
2021/06/03 08:42:16;;;;;;;;;;;26.30;94.90;;;;;;5127019;27;19908;-46
2021/06/03 08:44:43;;;;;;;;;;;26.30;94.90;;;;;;5127581;28;19914;-43
2021/06/03 08:47:10;;;;;;;;;;;26.30;94.90;;;;;;5127514;28;19907;-45
2021/06/03 08:49:37;;;;;;;;;;;26.30;94.90;;;;;;5127601;28;20211;-56
2021/06/03 08:52:04;;;;;;;;;;;26.20;94.80;;;;;;5127634;28;19904;-47
2021/06/03 08:54:34;;;;;;;;;;;26.20;94.80;;;;;;5127330;28;19920;-47
2021/06/03 08:57:01;;;;;;;;;;;26.20;94.80;;;;;;5127201;28;19904;-52
2021/06/03 08:59:27;;;;;;;;;;;26.20;94.80;;;;;;5127303;28;19952;-46
2021/06/03 09:01:53;;;;;;;;;;;26.20;94.80;;;;;;5127080;28;19904;-43
2021/06/03 09:04:20;;;;;;;;;;;26.20;94.70;;;;;;5127379;28;19912;-42
2021/06/03 09:06:46;;;;;;;;;;;26.20;94.70;;;;;;5127396;28;19903;-46
2021/06/03 09:09:14;;;;;;;;;;;26.20;94.70;;;;;;5127265;28;19947;-44
2021/06/03 09:11:40;;;;;;;;;;;26.20;94.70;;;;;;5127255;28;19908;-48
2021/06/03 09:14:08;;;;;;;;;;;26.20;94.60;;;;;;5127411;28;20100;-50
2021/06/03 09:16:36;;;;;;;;;;;26.10;94.60;;;;;;5126689;28;19904;-42
2021/06/03 09:19:05;;;;;;;;;;;26.20;94.70;;;;;;5127127;28;19912;-47
2021/06/03 09:21:35;;;;;;;;;;;26.20;94.70;;;;;;5126879;28;19910;-47
2021/06/03 09:24:03;;;;;;;;;;;26.10;94.60;;;;;;5108905;28;19916;-43
2021/06/03 09:26:50;;;;;;;;;;;26.10;94.60;;;;;;5126543;28;19904;-46
2021/06/03 09:29:32;;;;;;;;;;;26.20;94.60;;;;;;5112780;28;19912;-41
2021/06/03 09:32:09;;;;;;;;;;;26.10;94.60;;;;;;5126750;28;19904;-45
2021/06/03 09:34:36;;;;;;;;;;;26.10;94.60;;;;;;5126718;28;19954;-47
2021/06/03 09:37:04;;;;;;;;;;;26.10;94.70;;;;;;5126663;28;19991;-43
2021/06/03 09:39:45;;;;;;;;;;;26.10;94.70;;;;;;5126808;28;20195;-43
2021/06/03 09:42:18;;;;;;;;;;;26.10;94.70;;;;;;5126038;28;19908;-44
2021/06/03 09:44:51;;;;;;;;;;;26.10;94.70;;;;;;5126568;28;19979;-45
2021/06/03 09:47:18;;;;;;;;;;;26.00;94.70;;;;;;5126445;28;19979;-49
2021/06/03 09:49:46;;;;;;;;;;;26.00;94.70;;;;;;5126507;28;19907;-45
2021/06/03 09:52:13;;;;;;;;;;;26.00;94.70;;;;;;5125979;28;20153;-44
2021/06/03 09:54:40;;;;;;;;;;;26.00;94.70;;;;;;5126441;28;19908;-43
2021/06/03 09:57:08;;;;;;;;;;;26.00;94.70;;;;;;5126027;28;19910;-46
2021/06/03 09:59:44;;;;;;;;;;;26.00;94.70;;;;;;5125898;28;20085;-44
2021/06/03 10:02:12;;;;;;;;;;;26.00;94.70;;;;;;5125670;28;19911;-45
2021/06/03 10:04:43;;;;;;;;;;;26.00;94.70;;;;;;5126389;28;19911;-46
2021/06/03 10:07:10;;;;;;;;;;;26.00;94.70;;;;;;5125674;28;19963;-44
2021/06/03 10:09:50;;;;;;;;;;;26.00;94.80;;;;;;5125791;28;19910;-45
2021/06/03 10:12:25;;;;;;;;;;;26.00;94.80;;;;;;5125803;28;19966;-51
2021/06/03 10:14:53;;;;;;;;;;;26.00;94.80;;;;;;5125967;28;19904;-46
2021/06/03 10:17:21;;;;;;;;;;;26.00;94.80;;;;;;5125830;28;19998;-46
2021/06/03 10:19:48;;;;;;;;;;;26.00;94.80;;;;;;5125005;28;19911;-44
2021/06/03 10:22:17;;;;;;;;;;;26.00;94.80;;;;;;5125359;28;19915;-52
2021/06/03 10:24:52;;;;;;;;;;;26.00;94.80;;;;;;5125771;28;19962;-45
2021/06/03 10:27:20;;;;;;;;;;;26.00;94.80;;;;;;5125519;28;20019;-55
2021/06/03 10:29:48;;;;;;;;;;;26.00;94.80;;;;;;5125590;28;19911;-48
2021/06/03 10:32:15;;;;;;;;;;;26.00;94.80;;;;;;5125596;28;19904;-49
2021/06/03 10:34:43;;;;;;;;;;;26.00;94.80;;;;;;5125355;28;19907;-43
2021/06/03 10:37:09;;;;;;;;;;;26.00;94.80;;;;;;5125306;28;19912;-44
2021/06/03 10:39:35;;;;;;;;;;;26.00;94.70;;;;;;5125518;28;19939;-48
2021/06/03 10:42:01;;;;;;;;;;;26.00;94.70;;;;;;5124942;28;19911;-50
2021/06/03 10:44:28;;;;;;;;;;;25.90;94.70;;;;;;5125536;28;19980;-45
2021/06/03 10:46:55;;;;;;;;;;;25.90;94.70;;;;;;5125209;28;19904;-43
2021/06/03 10:49:23;;;;;;;;;;;25.90;94.70;;;;;;5107660;28;19911;-50
2021/06/03 10:51:49;;;;;;;;;;;25.90;94.70;;;;;;5125151;28;20132;-43
2021/06/03 10:54:36;;;;;;;;;;;25.90;94.70;;;;;;5125043;28;19942;-46
2021/06/03 10:57:02;;;;;;;;;;;25.90;94.70;;;;;;5111149;28;19915;-47
2021/06/03 10:59:29;;;;;;;;;;;25.90;94.70;;;;;;5125100;28;19907;-53
2021/06/03 11:01:57;;;;;;;;;;;25.90;94.70;;;;;;5125253;28;20190;-51
2021/06/03 11:04:27;;;;;;;;;;;25.90;94.80;;;;;;5125005;28;19914;-43
2021/06/03 11:06:54;;;;;;;;;;;25.90;94.80;;;;;;5125133;28;20208;-47
2021/06/03 11:09:28;;;;;;;;;;;25.90;94.80;;;;;;5125370;28;19908;-44
2021/06/03 11:12:09;;;;;;;;;;;25.90;94.80;;;;;;5125181;28;20149;-43
2021/06/03 11:14:54;;;;;;;;;;;25.90;94.90;;;;;;5125628;28;19978;-51
2021/06/03 11:17:39;;;;;;;;;;;25.90;95.00;;;;;;5125222;28;19974;-42
2021/06/03 11:20:07;;;;;;;;;;;25.90;95.10;;;;;;5124832;28;19931;-44
2021/06/03 11:22:33;;;;;;;;;;;25.90;95.10;;;;;;5124648;28;19953;-50
2021/06/03 11:25:04;;;;;;;;;;;25.90;95.10;;;;;;5124671;28;19915;-43
2021/06/03 11:27:40;;;;;;;;;;;25.90;95.10;;;;;;5124826;28;19908;-47
2021/06/03 11:30:10;;;;;;;;;;;25.90;95.00;;;;;;5124937;28;20244;-47
2021/06/03 11:32:39;;;;;;;;;;;25.90;95.10;;;;;;5127788;28;19976;-47
2021/06/03 11:35:07;;;;;;;;;;;25.90;95.10;;;;;;5128771;28;19907;-48
2021/06/03 11:37:33;;;;;;;;;;;25.90;95.10;;;;;;5128842;28;19915;-44
2021/06/03 11:40:05;;;;;;;;;;;25.90;95.20;;;;;;5128807;28;19949;-50
2021/06/03 11:42:37;;;;;;;;;;;25.90;95.20;;;;;;5128590;28;20002;-46
2021/06/03 11:45:11;;;;;;;;;;;25.90;95.40;;;;;;5128904;28;20248;-50
2021/06/03 11:47:37;;;;;;;;;;;25.90;95.10;;;;;;5128419;28;19916;-53
2021/06/03 11:50:23;;;;;;;;;;;26.00;95.20;;;;;;5128411;28;19979;-48
2021/06/03 11:52:53;;;;;;;;;;;25.90;95.20;;;;;;5114068;28;19919;-45
2021/06/03 11:55:33;;;;;;;;;;;25.90;95.20;;;;;;5128476;28;19904;-51
2021/06/03 11:58:17;;;;;;;;;;;26.00;95.30;;;;;;5128554;28;20218;-49
2021/06/03 12:00:48;;;;;;;;;;;26.00;95.40;;;;;;5128268;28;19910;-51
2021/06/03 12:03:26;;;;;;;;;;;26.00;95.30;;;;;;5128393;28;19950;-48
2021/06/03 12:05:55;;;;;;;;;;;26.00;95.30;;;;;;5127977;28;19967;-44
2021/06/03 12:08:37;;;;;;;;;;;26.00;95.30;;;;;;5128621;28;20018;-45
2021/06/03 12:11:06;;;;;;;;;;;26.00;95.30;;;;;;5128085;28;20188;-42
2021/06/03 12:13:33;;;;;;;;;;;26.00;95.30;;;;;;5109923;28;19912;-48
2021/06/03 12:15:59;;;;;;;;;;;26.00;95.40;;;;;;5128213;28;19939;-44
2021/06/03 12:18:33;;;;;;;;;;;26.00;95.40;;;;;;5128297;28;20180;-44
2021/06/03 12:20:59;;;;;;;;;;;26.00;95.30;;;;;;5127844;28;19939;-45
2021/06/03 12:23:25;;;;;;;;;;;26.10;95.30;;;;;;5127998;28;19916;-47
2021/06/03 12:25:51;;;;;;;;;;;26.10;95.40;;;;;;5128004;28;19904;-46
2021/06/03 12:28:17;;;;;;;;;;;26.10;95.40;;;;;;5128288;28;20188;-45
2021/06/03 12:30:44;;;;;;;;;;;26.20;95.40;;;;;;5127507;28;19903;-42
2021/06/03 12:33:28;;;;;;;;;;;26.20;95.30;;;;;;5127907;28;19912;-51
2021/06/03 12:35:56;;;;;;;;;;;26.20;95.20;;;;;;5127823;28;20294;-49
2021/06/03 12:38:31;;;;;;;;;;;26.20;95.20;;;;;;5128201;28;19912;-46
2021/06/03 12:41:02;;;;;;;;;;;26.30;95.30;;;;;;5127583;28;19926;-48
2021/06/03 12:43:44;;;;;;;;;;;26.30;95.30;;;;;;5126573;28;19923;-44
2021/06/03 12:46:11;;;;;;;;;;;26.30;95.50;;;;;;5127549;28;19997;-48
2021/06/03 12:48:37;;;;;;;;;;;26.30;95.30;;;;;;5127718;28;19979;-50
2021/06/03 12:51:08;;;;;;;;;;;26.30;95.30;;;;;;5127444;28;19904;-47
2021/06/03 12:53:35;;;;;;;;;;;26.30;95.20;;;;;;5127278;28;20003;-45
2021/06/03 12:56:14;;;;;;;;;;;26.40;95.20;;;;;;5127169;28;19904;-47
2021/06/03 12:58:41;;;;;;;;;;;26.30;95.20;;;;;;5127745;28;20184;-44
2021/06/03 13:01:08;;;;;;;;;;;26.40;95.20;;;;;;5126945;28;19991;-43
2021/06/03 13:03:35;;;;;;;;;;;26.40;95.10;;;;;;5127275;28;19922;-51
2021/06/03 13:06:05;;;;;;;;;;;26.40;94.80;;;;;;5126957;28;20060;-47
2021/06/03 13:08:49;;;;;;;;;;;26.30;94.70;;;;;;5127166;28;19912;-58
2021/06/03 13:11:26;;;;;;;;;;;26.30;94.80;;;;;;5126876;28;20215;-50
2021/06/03 13:13:52;;;;;;;;;;;26.30;95.10;;;;;;5127091;28;20185;-56
2021/06/03 13:16:27;;;;;;;;;;;26.30;94.80;;;;;;5125521;28;19914;-51
2021/06/03 13:18:54;;;;;;;;;;;26.30;94.60;;;;;;5126574;28;19919;-50
2021/06/03 13:21:22;;;;;;;;;;;26.30;94.70;;;;;;5122725;27;20253;-49
2021/06/03 13:23:49;;;;;;;;;;;26.30;94.60;;;;;;5126149;28;19990;-48
2021/06/03 13:26:19;;;;;;;;;;;26.30;94.60;;;;;;5125901;28;19916;-55
2021/06/03 13:28:45;;;;;;;;;;;26.20;94.60;;;;;;5126777;28;19911;-53
2021/06/03 13:31:11;;;;;;;;;;;26.20;94.50;;;;;;5139834;27;19904;-50
2021/06/03 13:33:38;;;;;;;;;;;26.30;94.90;;;;;;5146686;27;20126;-52
2021/06/03 13:36:09;;;;;;;;;;;26.30;94.70;;;;;;5132719;27;19912;-53
2021/06/03 13:38:45;;;;;;;;;;;26.30;94.80;;;;;;5125169;28;20208;-46
2021/06/03 13:41:13;;;;;;;;;;;26.30;94.20;;;;;;5125145;28;19911;-51
2021/06/03 13:43:39;;;;;;;;;;;26.30;94.40;;;;;;5126494;28;19916;-47
2021/06/03 13:46:07;;;;;;;;;;;26.30;94.30;;;;;;5133111;27;19938;-46
2021/06/03 13:48:37;;;;;;;;;;;26.30;94.40;;;;;;5126114;28;20249;-48
2021/06/03 13:51:05;;;;;;;;;;;26.40;94.30;;;;;;5125430;28;19912;-49
2021/06/03 13:53:33;;;;;;;;;;;26.40;94.40;;;;;;5125034;28;20193;-47
2021/06/03 13:56:01;;;;;;;;;;;26.50;95.10;;;;;;5124881;28;19912;-49
2021/06/03 13:58:48;;;;;;;;;;;26.60;94.60;;;;;;5124902;28;19943;-45
2021/06/03 14:01:16;;;;;;;;;;;26.60;94.40;;;;;;5127768;27;19990;-46
2021/06/03 14:03:44;;;;;;;;;;;26.70;94.00;;;;;;5124840;28;19982;-50
2021/06/03 14:06:11;;;;;;;;;;;26.80;93.90;;;;;;5127234;27;20211;-50
2021/06/03 14:08:44;;;;;;;;;;;26.90;93.90;;;;;;5125745;28;19935;-48
2021/06/03 14:11:17;;;;;;;;;;;27.00;94.20;;;;;;5125516;28;19903;-46
2021/06/03 14:13:48;;;;;;;;;;;27.10;94.10;;;;;;5125868;28;19927;-46
2021/06/03 14:16:33;;;;;;;;;;;27.10;93.50;;;;;;5140308;27;19982;-45
2021/06/03 14:19:05;;;;;;;;;;;27.20;93.40;;;;;;5144607;27;19911;-42
2021/06/03 14:21:32;;;;;;;;;;;27.30;93.60;;;;;;5145880;27;20236;-45
2021/06/03 14:23:58;;;;;;;;;;;27.30;94.00;;;;;;5146287;27;19957;-48
2021/06/03 14:26:25;;;;;;;;;;;27.50;93.80;;;;;;5145771;27;19904;-47
2021/06/03 14:29:00;;;;;;;;;;;27.60;93.90;;;;;;5146375;27;19912;-47
2021/06/03 14:31:45;;;;;;;;;;;27.70;93.30;;;;;;5145712;27;19971;-45
2021/06/03 14:34:34;;;;;;;;;;;27.80;93.30;;;;;;5128263;27;19912;-49
2021/06/03 14:37:05;;;;;;;;;;;27.90;92.50;;;;;;5118759;28;19903;-50
2021/06/03 14:39:41;;;;;;;;;;;27.90;92.60;;;;;;5125301;28;19904;-50